»·PEaware :: TWY250 KSJC-KSEA

TWY250 :: KSJC-KSEA

FLIGHT INFORMATION

Flight Status: Arrived
Operator: Unknown
More flights by this operator :: More flights under this callsign
Pilot: Anonymous 13363 (13363)
Aircraft: BOMBARDIER BD-100 CHALLENGER 300
(CL30)
More flights by this aircraft type
Origin: KSJC Mineta San Jose Intl
United States
Destination: KSEA Seattle-Tacoma Intl
United States
More flights between these airports :: More routes between these airports
Route: +LOUPE4 BMRNG HRNER RBL LMT BTG HAWKZ6
File this flight plan on PilotEdge
Remarks:
Altitude:
(Current/Filed)
41,000ft
Speed:
(Current/Filed)
470kts
Departed: 02-Jan-18 07:34 PM
Arrived: 02-Jan-18 09:09 PM
Distance/Time
Traveled:
605nm/1:35
Distance/Time
To Go:
Arrived

Flight Plot

Page will automatically refresh every two minutes.

Flight plan parsing failed; only flown route is shown


Map Options




Map Legend


Flown Route
Filed Route
Departure Airport
Arrival Airport
Navaid (VOR, NDB)
Fix

Horizontal Profiles

Position Reports

Time Latitude Longitude Heading Altitude Ground
Speed
02-Jan-18 19:17 37.357871 -121.929858 228 48ft 0kts
02-Jan-18 19:18 37.357871 -121.929858 228 48ft 0kts
02-Jan-18 19:19 37.357871 -121.929858 228 48ft 0kts
02-Jan-18 19:20 37.357871 -121.929858 228 48ft 0kts
02-Jan-18 19:21 37.357871 -121.929858 228 48ft 0kts
02-Jan-18 19:22 37.357871 -121.929858 228 48ft 0kts
02-Jan-18 19:23 37.357871 -121.929858 228 48ft 0kts
02-Jan-18 19:24 37.357871 -121.929858 228 48ft 0kts
02-Jan-18 19:25 37.357871 -121.929858 228 48ft 0kts
02-Jan-18 19:26 37.357871 -121.929858 228 48ft 0kts
02-Jan-18 19:27 37.357871 -121.929858 228 48ft 0kts
02-Jan-18 19:28 37.357871 -121.929858 228 48ft 0kts
02-Jan-18 19:29 37.357871 -121.929858 228 48ft 0kts
02-Jan-18 19:30 37.357871 -121.929858 228 48ft 0kts
02-Jan-18 19:31 37.357871 -121.929858 228 48ft 0kts
02-Jan-18 19:32 37.357871 -121.929858 228 48ft 0kts
02-Jan-18 19:33 37.357871 -121.929858 228 48ft 0kts
02-Jan-18 19:34 37.357871 -121.929858 228 48ft 0kts
02-Jan-18 19:35 37.357793 -121.929951 207 48ft 2kts
02-Jan-18 19:36 37.357654 -121.928965 55 48ft 7kts
02-Jan-18 19:37 37.355433 -121.926131 139 48ft 12kts
02-Jan-18 19:38 37.354853 -121.923106 132 48ft 10kts
02-Jan-18 19:39 37.352163 -121.920042 101 48ft 13kts
02-Jan-18 19:40 37.358196 -121.924947 316 48ft 139kts
02-Jan-18 19:41 37.394615 -121.959528 355 3909ft 187kts
02-Jan-18 19:42 37.403707 -121.906650 133 8051ft 257kts
02-Jan-18 19:43 37.347742 -121.838559 134 12333ft 309kts
02-Jan-18 19:44 37.269638 -121.814867 213 16556ft 343kts
02-Jan-18 19:45 37.268135 -121.929345 312 19942ft 402kts
02-Jan-18 19:46 37.377322 -121.952709 0 23256ft 426kts
02-Jan-18 19:47 37.476777 -121.948894 0 25484ft 442kts
02-Jan-18 19:48 37.622387 -121.940316 0 28198ft 463kts
02-Jan-18 19:49 37.752284 -121.929773 359 30192ft 477kts
02-Jan-18 19:50 37.863620 -121.918216 0 31347ft 493kts
02-Jan-18 19:51 38.001171 -121.900956 0 32543ft 506kts
02-Jan-18 19:52 38.160542 -121.874626 0 34956ft 501kts
02-Jan-18 19:53 38.272627 -121.853043 0 36322ft 505kts
02-Jan-18 19:54 38.401586 -121.825845 0 37775ft 509kts
02-Jan-18 19:55 38.539852 -121.794408 0 39156ft 514kts
02-Jan-18 19:56 38.678444 -121.764630 0 40853ft 503kts
02-Jan-18 19:57 38.814718 -121.740492 0 42368ft 492kts
02-Jan-18 19:58 38.949338 -121.720575 0 43194ft 495kts
02-Jan-18 19:59 39.086720 -121.700980 0 43192ft 501kts
02-Jan-18 20:00 39.215750 -121.682428 0 43184ft 503kts
02-Jan-18 20:01 39.354022 -121.662444 0 43185ft 504kts
02-Jan-18 20:02 39.492211 -121.642220 0 43186ft 504kts
02-Jan-18 20:03 39.630827 -121.621703 0 43176ft 504kts
02-Jan-18 20:04 39.769462 -121.600965 0 43162ft 504kts
02-Jan-18 20:05 39.907877 -121.580002 0 43164ft 504kts
02-Jan-18 20:06 40.046250 -121.558791 0 43164ft 503kts
02-Jan-18 20:07 40.181456 -121.538541 0 43162ft 499kts
02-Jan-18 20:08 40.318086 -121.521230 0 43158ft 496kts
02-Jan-18 20:09 40.454190 -121.503810 0 43159ft 494kts
02-Jan-18 20:10 40.590055 -121.486408 0 43160ft 494kts
02-Jan-18 20:11 40.725582 -121.469506 0 43156ft 491kts
02-Jan-18 20:12 40.860312 -121.452154 0 43222ft 490kts
02-Jan-18 20:13 40.992900 -121.434845 0 43272ft 490kts
02-Jan-18 20:14 41.123672 -121.417830 0 43267ft 490kts
02-Jan-18 20:15 41.258566 -121.400206 0 43267ft 490kts
02-Jan-18 20:16 41.392869 -121.382632 0 43268ft 489kts
02-Jan-18 20:17 41.527546 -121.364996 0 43296ft 489kts
02-Jan-18 20:18 41.659333 -121.347642 1 43290ft 489kts
02-Jan-18 20:19 41.793750 -121.329954 1 43290ft 488kts
02-Jan-18 20:20 41.927946 -121.312644 1 43291ft 487kts
02-Jan-18 20:21 42.062054 -121.294920 1 43292ft 487kts
02-Jan-18 20:22 42.193509 -121.277526 1 43287ft 487kts
02-Jan-18 20:23 42.327524 -121.259774 1 43288ft 487kts
02-Jan-18 20:24 42.461148 -121.241943 1 43289ft 486kts
02-Jan-18 20:25 42.595294 -121.223955 1 43292ft 486kts
02-Jan-18 20:26 42.728919 -121.206281 1 43291ft 486kts
02-Jan-18 20:27 42.862305 -121.188267 1 43291ft 486kts
02-Jan-18 20:28 42.996262 -121.170110 1 43292ft 486kts
02-Jan-18 20:29 43.128918 -121.152015 1 43369ft 485kts
02-Jan-18 20:30 43.262496 -121.133682 1 43370ft 485kts
02-Jan-18 20:31 43.396320 -121.115204 1 43370ft 486kts
02-Jan-18 20:32 43.530282 -121.096583 1 43371ft 486kts
02-Jan-18 20:33 43.663982 -121.077869 1 43372ft 486kts
02-Jan-18 20:34 43.798030 -121.058963 1 43373ft 487kts
02-Jan-18 20:35 43.932495 -121.039853 1 43374ft 487kts
02-Jan-18 20:36 44.066247 -121.020692 1 43375ft 488kts
02-Jan-18 20:37 44.192113 -121.002518 1 43370ft 488kts
02-Jan-18 20:38 44.325841 -120.983039 1 43371ft 488kts
02-Jan-18 20:39 44.460123 -120.963310 1 43371ft 488kts
02-Jan-18 20:40 44.594264 -120.943587 1 43373ft 488kts
02-Jan-18 20:41 44.727754 -120.938416 342 43375ft 475kts
02-Jan-18 20:42 44.834729 -121.029196 305 43429ft 443kts
02-Jan-18 20:43 44.912758 -121.161445 304 43561ft 441kts
02-Jan-18 20:44 44.991472 -121.293661 304 43562ft 442kts
02-Jan-18 20:45 45.070200 -121.426126 305 43561ft 442kts
02-Jan-18 20:46 45.146890 -121.555673 305 43555ft 442kts
02-Jan-18 20:47 45.224046 -121.686610 304 43562ft 442kts
02-Jan-18 20:48 45.302130 -121.819740 304 43556ft 442kts
02-Jan-18 20:49 45.380717 -121.954369 304 43396ft 445kts
02-Jan-18 20:50 45.459296 -122.089612 304 43317ft 445kts
02-Jan-18 20:51 45.525915 -122.205016 306 43315ft 442kts
02-Jan-18 20:52 45.603573 -122.339702 306 43315ft 438kts
02-Jan-18 20:53 45.679763 -122.472616 305 42042ft 434kts
02-Jan-18 20:54 45.768603 -122.588695 328 39145ft 452kts
02-Jan-18 20:55 45.892262 -122.629156 346 35779ft 469kts
02-Jan-18 20:56 46.018331 -122.659095 345 30695ft 477kts
02-Jan-18 20:57 46.134149 -122.685505 347 24484ft 479kts
02-Jan-18 20:58 46.255453 -122.709507 347 21164ft 418kts
02-Jan-18 20:59 46.366336 -122.723362 354 17851ft 391kts
02-Jan-18 21:00 46.469656 -122.727623 355 14571ft 362kts
02-Jan-18 21:01 46.565173 -122.731182 355 12257ft 313kts
02-Jan-18 21:02 46.650515 -122.734393 355 12293ft 317kts
02-Jan-18 21:03 46.740446 -122.737670 355 12294ft 331kts
02-Jan-18 21:04 46.823371 -122.688176 36 12294ft 341kts
02-Jan-18 21:05 46.893071 -122.599672 42 12016ft 321kts
02-Jan-18 21:06 46.954992 -122.509905 45 11522ft 309kts
02-Jan-18 21:07 47.022525 -122.436231 29 10712ft 304kts
02-Jan-18 21:08 47.095481 -122.373825 30 8719ft 308kts
02-Jan-18 21:09 47.152391 -122.340090 15 6616ft 295kts
02-Jan-18 21:10 47.221565 -122.322056 359 5557ft 240kts
02-Jan-18 21:11 47.281435 -122.316132 4 3931ft 188kts
02-Jan-18 21:12 47.333638 -122.313179 359 2816ft 194kts
02-Jan-18 21:13 47.384655 -122.311648 359 1413ft 169kts
02-Jan-18 21:14 47.426669 -122.311279 1 541ft 129kts
02-Jan-18 21:15 47.453798 -122.311103 359 332ft 30kts
02-Jan-18 21:16 47.453702 -122.313493 180 332ft 14kts
02-Jan-18 21:17 47.448922 -122.313530 181 332ft 20kts
02-Jan-18 21:18 47.439673 -122.313730 199 332ft 25kts
02-Jan-18 21:19 47.438317 -122.315269 12 332ft 0kts

Navigation Log

Ident Type
Flight plan parsing failed, navigation log unavailable